sensor_id;sensor_type;location;lat;lon;timestamp;pressure;altitude;pressure_sealevel;temperature;humidity
34297;BME280;20564;42.902;25.336;2023-08-31T00:02:01;96585.69;;;18.58;100.00
34297;BME280;20564;42.902;25.336;2023-08-31T00:04:28;96590.63;;;18.61;100.00
34297;BME280;20564;42.902;25.336;2023-08-31T00:06:55;96598.59;;;18.54;100.00
34297;BME280;20564;42.902;25.336;2023-08-31T00:09:23;96603.31;;;18.52;100.00
34297;BME280;20564;42.902;25.336;2023-08-31T00:11:51;96604.34;;;18.51;100.00
34297;BME280;20564;42.902;25.336;2023-08-31T00:14:18;96594.72;;;18.50;100.00
34297;BME280;20564;42.902;25.336;2023-08-31T00:16:45;96592.84;;;18.44;100.00
34297;BME280;20564;42.902;25.336;2023-08-31T00:19:15;96607.63;;;18.47;100.00
34297;BME280;20564;42.902;25.336;2023-08-31T00:21:42;96601.03;;;18.49;100.00
34297;BME280;20564;42.902;25.336;2023-08-31T00:24:10;96605.16;;;18.59;100.00
34297;BME280;20564;42.902;25.336;2023-08-31T00:26:37;96599.63;;;18.67;100.00
34297;BME280;20564;42.902;25.336;2023-08-31T00:29:10;96596.94;;;18.60;100.00
34297;BME280;20564;42.902;25.336;2023-08-31T00:31:37;96606.81;;;18.60;100.00
34297;BME280;20564;42.902;25.336;2023-08-31T00:34:05;96598.63;;;18.61;100.00
34297;BME280;20564;42.902;25.336;2023-08-31T00:36:33;96600.25;;;18.62;100.00
34297;BME280;20564;42.902;25.336;2023-08-31T00:39:05;96602.91;;;18.62;100.00
34297;BME280;20564;42.902;25.336;2023-08-31T00:41:34;96593.28;;;18.61;100.00
34297;BME280;20564;42.902;25.336;2023-08-31T00:44:01;96598.00;;;18.66;100.00
34297;BME280;20564;42.902;25.336;2023-08-31T00:46:31;96595.31;;;18.66;100.00
34297;BME280;20564;42.902;25.336;2023-08-31T00:48:59;96598.00;;;18.66;100.00
34297;BME280;20564;42.902;25.336;2023-08-31T00:51:26;96605.16;;;18.65;100.00
34297;BME280;20564;42.902;25.336;2023-08-31T00:53:57;96603.53;;;18.71;100.00
34297;BME280;20564;42.902;25.336;2023-08-31T00:56:26;96613.97;;;18.66;100.00
34297;BME280;20564;42.902;25.336;2023-08-31T00:58:53;96617.66;;;18.65;100.00
34297;BME280;20564;42.902;25.336;2023-08-31T01:01:35;96607.22;;;18.63;100.00
34297;BME280;20564;42.902;25.336;2023-08-31T01:07:10;96611.31;;;18.52;100.00
34297;BME280;20564;42.902;25.336;2023-08-31T01:10:10;96608.44;;;18.47;100.00
34297;BME280;20564;42.902;25.336;2023-08-31T01:13:08;96622.38;;;18.49;100.00
34297;BME280;20564;42.902;25.336;2023-08-31T01:15:45;96620.53;;;18.43;100.00
34297;BME280;20564;42.902;25.336;2023-08-31T01:18:17;96617.88;;;18.37;100.00
34297;BME280;20564;42.902;25.336;2023-08-31T01:21:02;96626.88;;;18.36;100.00
34297;BME280;20564;42.902;25.336;2023-08-31T01:26:11;96617.03;;;18.36;100.00
34297;BME280;20564;42.902;25.336;2023-08-31T01:28:39;96623.59;;;18.34;100.00
34297;BME280;20564;42.902;25.336;2023-08-31T01:31:07;96622.56;;;18.35;100.00
34297;BME280;20564;42.902;25.336;2023-08-31T01:37:01;96619.47;;;18.24;100.00
34297;BME280;20564;42.902;25.336;2023-08-31T01:39:37;96618.22;;;18.20;100.00
34297;BME280;20564;42.902;25.336;2023-08-31T01:42:11;96611.31;;;18.33;100.00
34297;BME280;20564;42.902;25.336;2023-08-31T01:44:41;96609.66;;;18.25;100.00
34297;BME280;20564;42.902;25.336;2023-08-31T01:47:10;96610.44;;;18.19;100.00
34297;BME280;20564;42.902;25.336;2023-08-31T01:49:40;96616.56;;;18.13;100.00
34297;BME280;20564;42.902;25.336;2023-08-31T01:52:10;96615.38;;;18.22;100.00
34297;BME280;20564;42.902;25.336;2023-08-31T01:54:37;96615.38;;;18.22;100.00
34297;BME280;20564;42.902;25.336;2023-08-31T01:57:04;96621.09;;;18.19;100.00
34297;BME280;20564;42.902;25.336;2023-08-31T01:59:33;96623.97;;;18.11;100.00
34297;BME280;20564;42.902;25.336;2023-08-31T02:02:04;96623.56;;;18.14;100.00
34297;BME280;20564;42.902;25.336;2023-08-31T02:04:31;96626.84;;;18.16;100.00
34297;BME280;20564;42.902;25.336;2023-08-31T02:06:58;96631.72;;;18.05;100.00
34297;BME280;20564;42.902;25.336;2023-08-31T02:09:25;96629.28;;;18.04;100.00
34297;BME280;20564;42.902;25.336;2023-08-31T02:11:52;96625.41;;;18.06;100.00
34297;BME280;20564;42.902;25.336;2023-08-31T02:14:20;96616.56;;;17.99;100.00
34297;BME280;20564;42.902;25.336;2023-08-31T02:16:47;96620.47;;;18.03;100.00
34297;BME280;20564;42.902;25.336;2023-08-31T02:19:14;96615.31;;;18.02;100.00
34297;BME280;20564;42.902;25.336;2023-08-31T02:21:41;96608.75;;;17.98;100.00
34297;BME280;20564;42.902;25.336;2023-08-31T02:24:08;96616.31;;;17.94;100.00
34297;BME280;20564;42.902;25.336;2023-08-31T02:26:35;96612.81;;;17.87;100.00
34297;BME280;20564;42.902;25.336;2023-08-31T02:29:04;96617.53;;;17.85;100.00
34297;BME280;20564;42.902;25.336;2023-08-31T02:31:31;96615.47;;;17.80;100.00
34297;BME280;20564;42.902;25.336;2023-08-31T02:33:58;96614.66;;;17.80;100.00
34297;BME280;20564;42.902;25.336;2023-08-31T02:36:26;96611.97;;;17.80;100.00
34297;BME280;20564;42.902;25.336;2023-08-31T02:38:52;96614.84;;;17.78;100.00
34297;BME280;20564;42.902;25.336;2023-08-31T02:41:20;96617.47;;;17.72;100.00
34297;BME280;20564;42.902;25.336;2023-08-31T02:43:47;96623.81;;;17.71;100.00
34297;BME280;20564;42.902;25.336;2023-08-31T02:46:16;96620.13;;;17.72;100.00
34297;BME280;20564;42.902;25.336;2023-08-31T02:48:44;96615.41;;;17.67;100.00
34297;BME280;20564;42.902;25.336;2023-08-31T02:51:11;96627.25;;;17.65;100.00
34297;BME280;20564;42.902;25.336;2023-08-31T02:53:38;96625.84;;;17.69;100.00
34297;BME280;20564;42.902;25.336;2023-08-31T02:56:05;96627.50;;;17.70;100.00
34297;BME280;20564;42.902;25.336;2023-08-31T02:58:32;96629.09;;;17.64;100.00
34297;BME280;20564;42.902;25.336;2023-08-31T03:01:10;96626.66;;;17.63;100.00
34297;BME280;20564;42.902;25.336;2023-08-31T03:03:49;96620.47;;;17.55;100.00
34297;BME280;20564;42.902;25.336;2023-08-31T03:06:16;96626.78;;;17.54;100.00
34297;BME280;20564;42.902;25.336;2023-08-31T03:08:43;96626.16;;;17.46;100.00
34297;BME280;20564;42.902;25.336;2023-08-31T03:11:14;96630.22;;;17.42;100.00
34297;BME280;20564;42.902;25.336;2023-08-31T03:13:41;96631.25;;;17.41;100.00
34297;BME280;20564;42.902;25.336;2023-08-31T03:16:09;96635.13;;;17.38;100.00
34297;BME280;20564;42.902;25.336;2023-08-31T03:18:36;96627.31;;;17.36;100.00
34297;BME280;20564;42.902;25.336;2023-08-31T03:21:03;96632.63;;;17.36;100.00
34297;BME280;20564;42.902;25.336;2023-08-31T03:23:30;96635.50;;;17.35;100.00
34297;BME280;20564;42.902;25.336;2023-08-31T03:25:57;96634.88;;;17.33;100.00
34297;BME280;20564;42.902;25.336;2023-08-31T03:28:24;96628.56;;;17.34;100.00
34297;BME280;20564;42.902;25.336;2023-08-31T03:30:55;96636.72;;;17.32;100.00
34297;BME280;20564;42.902;25.336;2023-08-31T03:33:25;96640.44;;;17.38;100.00
34297;BME280;20564;42.902;25.336;2023-08-31T03:35:59;96637.53;;;17.33;100.00
34297;BME280;20564;42.902;25.336;2023-08-31T03:38:29;96648.16;;;17.26;100.00
34297;BME280;20564;42.902;25.336;2023-08-31T03:40:59;96646.47;;;17.25;100.00
34297;BME280;20564;42.902;25.336;2023-08-31T03:43:26;96642.84;;;17.26;100.00
34297;BME280;20564;42.902;25.336;2023-08-31T03:45:56;96652.41;;;17.21;100.00
34297;BME280;20564;42.902;25.336;2023-08-31T03:48:26;96649.13;;;17.19;100.00
34297;BME280;20564;42.902;25.336;2023-08-31T03:50:54;96653.25;;;17.28;100.00
34297;BME280;20564;42.902;25.336;2023-08-31T03:53:21;96649.75;;;17.21;100.00
34297;BME280;20564;42.902;25.336;2023-08-31T03:55:48;96652.34;;;17.14;100.00
34297;BME280;20564;42.902;25.336;2023-08-31T03:58:15;96659.28;;;17.08;100.00
34297;BME280;20564;42.902;25.336;2023-08-31T04:00:42;96659.91;;;17.10;100.00
34297;BME280;20564;42.902;25.336;2023-08-31T04:03:09;96662.13;;;17.07;100.00
34297;BME280;20564;42.902;25.336;2023-08-31T04:05:37;96669.28;;;17.06;100.00
34297;BME280;20564;42.902;25.336;2023-08-31T04:08:04;96668.75;;;17.18;100.00
34297;BME280;20564;42.902;25.336;2023-08-31T04:10:31;96662.44;;;17.19;100.00
34297;BME280;20564;42.902;25.336;2023-08-31T04:12:59;96664.44;;;17.17;100.00
34297;BME280;20564;42.902;25.336;2023-08-31T04:15:25;96663.69;;;17.23;100.00
34297;BME280;20564;42.902;25.336;2023-08-31T04:17:52;96673.94;;;17.26;100.00
34297;BME280;20564;42.902;25.336;2023-08-31T04:20:22;96680.06;;;17.26;100.00
34297;BME280;20564;42.902;25.336;2023-08-31T04:22:49;96674.16;;;17.31;100.00
34297;BME280;20564;42.902;25.336;2023-08-31T04:25:17;96678.06;;;17.35;100.00
34297;BME280;20564;42.902;25.336;2023-08-31T04:27:43;96686.69;;;17.44;100.00
34297;BME280;20564;42.902;25.336;2023-08-31T04:30:12;96682.66;;;17.48;100.00
34297;BME280;20564;42.902;25.336;2023-08-31T04:32:38;96686.38;;;17.53;100.00
34297;BME280;20564;42.902;25.336;2023-08-31T04:35:06;96693.56;;;17.59;100.00
34297;BME280;20564;42.902;25.336;2023-08-31T04:37:33;96695.00;;;17.62;100.00
34297;BME280;20564;42.902;25.336;2023-08-31T04:40:00;96704.06;;;17.68;100.00
34297;BME280;20564;42.902;25.336;2023-08-31T04:42:27;96705.28;;;17.72;100.00
34297;BME280;20564;42.902;25.336;2023-08-31T04:44:54;96714.81;;;17.81;100.00
34297;BME280;20564;42.902;25.336;2023-08-31T04:47:21;96707.03;;;17.86;100.00
34297;BME280;20564;42.902;25.336;2023-08-31T04:49:48;96718.16;;;17.96;100.00
34297;BME280;20564;42.902;25.336;2023-08-31T04:52:15;96708.34;;;18.03;100.00
34297;BME280;20564;42.902;25.336;2023-08-31T04:54:42;96710.84;;;18.12;100.00
34297;BME280;20564;42.902;25.336;2023-08-31T04:57:09;96717.81;;;18.19;100.00
34297;BME280;20564;42.902;25.336;2023-08-31T04:59:36;96712.69;;;18.24;100.00
34297;BME280;20564;42.902;25.336;2023-08-31T05:02:03;96719.88;;;18.17;100.00
34297;BME280;20564;42.902;25.336;2023-08-31T05:04:30;96726.06;;;18.31;100.00
34297;BME280;20564;42.902;25.336;2023-08-31T05:06:57;96723.22;;;18.39;100.00
34297;BME280;20564;42.902;25.336;2023-08-31T05:09:24;96727.72;;;18.45;100.00
34297;BME280;20564;42.902;25.336;2023-08-31T05:11:51;96740.06;;;18.53;100.00
34297;BME280;20564;42.902;25.336;2023-08-31T05:14:18;96734.13;;;18.58;100.00
34297;BME280;20564;42.902;25.336;2023-08-31T05:16:45;96746.91;;;18.82;100.00
34297;BME280;20564;42.902;25.336;2023-08-31T05:19:14;96747.56;;;19.11;100.00
34297;BME280;20564;42.902;25.336;2023-08-31T05:21:41;96743.44;;;19.41;100.00
34297;BME280;20564;42.902;25.336;2023-08-31T05:24:08;96737.69;;;19.71;100.00
34297;BME280;20564;42.902;25.336;2023-08-31T05:26:34;96735.13;;;20.03;100.00
34297;BME280;20564;42.902;25.336;2023-08-31T05:29:02;96736.44;;;20.32;100.00
34297;BME280;20564;42.902;25.336;2023-08-31T05:31:30;96741.50;;;20.53;100.00
34297;BME280;20564;42.902;25.336;2023-08-31T05:33:58;96732.91;;;20.83;100.00
34297;BME280;20564;42.902;25.336;2023-08-31T05:36:24;96735.38;;;21.09;100.00
34297;BME280;20564;42.902;25.336;2023-08-31T05:38:51;96734.78;;;21.32;100.00
34297;BME280;20564;42.902;25.336;2023-08-31T05:41:19;96732.47;;;21.61;100.00
34297;BME280;20564;42.902;25.336;2023-08-31T05:43:46;96735.66;;;21.76;100.00
34297;BME280;20564;42.902;25.336;2023-08-31T05:59:27;96731.44;;;23.26;100.00
34297;BME280;20564;42.902;25.336;2023-08-31T06:01:53;96736.56;;;23.27;100.00
34297;BME280;20564;42.902;25.336;2023-08-31T06:04:22;96742.75;;;23.28;100.00
34297;BME280;20564;42.902;25.336;2023-08-31T06:06:49;96734.13;;;23.38;100.00
34297;BME280;20564;42.902;25.336;2023-08-31T06:09:20;96729.69;;;23.43;99.40
34297;BME280;20564;42.902;25.336;2023-08-31T06:11:47;96732.38;;;23.55;97.54
34297;BME280;20564;42.902;25.336;2023-08-31T06:14:14;96742.91;;;23.68;97.97
34297;BME280;20564;42.902;25.336;2023-08-31T06:16:41;96754.84;;;23.84;96.94
34297;BME280;20564;42.902;25.336;2023-08-31T06:19:07;96762.75;;;23.91;96.34
34297;BME280;20564;42.902;25.336;2023-08-31T06:21:34;96763.44;;;23.98;96.34
34297;BME280;20564;42.902;25.336;2023-08-31T06:24:01;96766.16;;;24.10;98.75
34297;BME280;20564;42.902;25.336;2023-08-31T06:26:30;96774.53;;;24.13;97.04
34297;BME280;20564;42.902;25.336;2023-08-31T06:28:57;96784.59;;;24.18;100.00
34297;BME280;20564;42.902;25.336;2023-08-31T06:31:24;96782.50;;;24.08;99.83
34297;BME280;20564;42.902;25.336;2023-08-31T06:33:51;96778.66;;;24.04;98.55
34297;BME280;20564;42.902;25.336;2023-08-31T06:36:17;96792.81;;;23.99;100.00
34297;BME280;20564;42.902;25.336;2023-08-31T06:38:44;96790.78;;;23.95;100.00
34297;BME280;20564;42.902;25.336;2023-08-31T06:41:11;96799.13;;;23.81;100.00
34297;BME280;20564;42.902;25.336;2023-08-31T06:43:38;96805.16;;;23.65;100.00
34297;BME280;20564;42.902;25.336;2023-08-31T06:46:05;96803.97;;;23.61;100.00
34297;BME280;20564;42.902;25.336;2023-08-31T06:48:50;96811.44;;;23.47;100.00
34297;BME280;20564;42.902;25.336;2023-08-31T06:51:16;96807.47;;;23.38;100.00
34297;BME280;20564;42.902;25.336;2023-08-31T06:53:44;96810.84;;;23.33;100.00
34297;BME280;20564;42.902;25.336;2023-08-31T06:56:10;96809.44;;;23.43;100.00
34297;BME280;20564;42.902;25.336;2023-08-31T06:58:37;96807.25;;;23.63;100.00
34297;BME280;20564;42.902;25.336;2023-08-31T07:01:07;96804.09;;;24.13;100.00
34297;BME280;20564;42.902;25.336;2023-08-31T07:03:34;96802.31;;;24.54;99.20
34297;BME280;20564;42.902;25.336;2023-08-31T07:06:01;96808.19;;;25.08;97.90
34297;BME280;20564;42.902;25.336;2023-08-31T07:08:29;96803.78;;;25.64;92.66
34297;BME280;20564;42.902;25.336;2023-08-31T07:10:57;96798.53;;;26.08;86.20
34297;BME280;20564;42.902;25.336;2023-08-31T07:13:24;96798.25;;;26.27;83.13
34297;BME280;20564;42.902;25.336;2023-08-31T07:15:51;96805.28;;;26.28;82.02
34297;BME280;20564;42.902;25.336;2023-08-31T07:18:17;96806.41;;;26.32;86.11
34297;BME280;20564;42.902;25.336;2023-08-31T07:20:45;96813.41;;;26.11;86.25
34297;BME280;20564;42.902;25.336;2023-08-31T07:23:13;96821.59;;;25.99;86.80
34297;BME280;20564;42.902;25.336;2023-08-31T07:25:41;96821.53;;;25.94;83.56
34297;BME280;20564;42.902;25.336;2023-08-31T07:28:09;96834.28;;;25.82;84.23
34297;BME280;20564;42.902;25.336;2023-08-31T07:30:37;96840.38;;;25.60;86.37
34297;BME280;20564;42.902;25.336;2023-08-31T07:33:04;96841.28;;;25.66;85.37
34297;BME280;20564;42.902;25.336;2023-08-31T07:35:50;96844.78;;;25.66;84.00
34297;BME280;20564;42.902;25.336;2023-08-31T07:38:17;96850.03;;;25.56;82.58
34297;BME280;20564;42.902;25.336;2023-08-31T07:40:44;96858.47;;;25.31;81.53
34297;BME280;20564;42.902;25.336;2023-08-31T07:43:11;96859.50;;;25.13;82.06
34297;BME280;20564;42.902;25.336;2023-08-31T07:45:39;96857.03;;;25.00;83.35
34297;BME280;20564;42.902;25.336;2023-08-31T07:48:06;96857.34;;;24.87;84.33
34297;BME280;20564;42.902;25.336;2023-08-31T07:50:33;96868.03;;;24.70;85.14
34297;BME280;20564;42.902;25.336;2023-08-31T07:53:00;96859.88;;;24.53;87.43
34297;BME280;20564;42.902;25.336;2023-08-31T07:55:27;96864.56;;;24.34;89.54
34297;BME280;20564;42.902;25.336;2023-08-31T07:57:54;96867.94;;;24.29;90.95
34297;BME280;20564;42.902;25.336;2023-08-31T08:00:21;96868.88;;;24.35;91.05
34297;BME280;20564;42.902;25.336;2023-08-31T08:02:48;96869.59;;;24.30;90.97
34297;BME280;20564;42.902;25.336;2023-08-31T08:05:15;96877.53;;;24.25;92.59
34297;BME280;20564;42.902;25.336;2023-08-31T08:07:42;96872.63;;;24.22;95.99
34297;BME280;20564;42.902;25.336;2023-08-31T08:10:10;96869.00;;;24.17;95.70
34297;BME280;20564;42.902;25.336;2023-08-31T08:12:38;96864.13;;;24.14;91.57
34297;BME280;20564;42.902;25.336;2023-08-31T08:15:06;96864.31;;;24.24;94.96
34297;BME280;20564;42.902;25.336;2023-08-31T08:17:35;96864.44;;;24.29;93.52
34297;BME280;20564;42.902;25.336;2023-08-31T08:20:03;96859.50;;;24.38;89.60
34297;BME280;20564;42.902;25.336;2023-08-31T08:22:30;96853.28;;;24.61;86.95
34297;BME280;20564;42.902;25.336;2023-08-31T08:24:56;96855.81;;;24.91;84.41
34297;BME280;20564;42.902;25.336;2023-08-31T08:27:23;96852.66;;;25.22;84.78
34297;BME280;20564;42.902;25.336;2023-08-31T08:29:50;96853.91;;;25.48;85.38
34297;BME280;20564;42.902;25.336;2023-08-31T08:32:17;96856.53;;;25.89;81.15
34297;BME280;20564;42.902;25.336;2023-08-31T08:34:44;96847.56;;;26.22;80.59
34297;BME280;20564;42.902;25.336;2023-08-31T08:37:10;96851.47;;;26.48;79.46
34297;BME280;20564;42.902;25.336;2023-08-31T08:39:37;96842.75;;;26.63;78.78
34297;BME280;20564;42.902;25.336;2023-08-31T08:42:04;96837.25;;;26.80;77.59
34297;BME280;20564;42.902;25.336;2023-08-31T08:44:33;96839.09;;;26.74;74.81
34297;BME280;20564;42.902;25.336;2023-08-31T08:47:02;96853.34;;;26.69;77.08
34297;BME280;20564;42.902;25.336;2023-08-31T08:49:33;96853.97;;;26.77;75.36
34297;BME280;20564;42.902;25.336;2023-08-31T08:52:02;96848.63;;;26.82;73.85
34297;BME280;20564;42.902;25.336;2023-08-31T08:54:29;96850.88;;;27.12;73.16
34297;BME280;20564;42.902;25.336;2023-08-31T08:56:56;96852.81;;;27.44;70.16
34297;BME280;20564;42.902;25.336;2023-08-31T08:59:24;96850.72;;;27.78;70.88
34297;BME280;20564;42.902;25.336;2023-08-31T09:01:51;96852.91;;;27.81;67.24
34297;BME280;20564;42.902;25.336;2023-08-31T09:04:18;96846.72;;;27.85;61.90
34297;BME280;20564;42.902;25.336;2023-08-31T09:06:45;96851.19;;;28.07;62.50
34297;BME280;20564;42.902;25.336;2023-08-31T09:09:12;96831.00;;;28.20;61.79
34297;BME280;20564;42.902;25.336;2023-08-31T09:11:39;96836.41;;;28.20;57.81
34297;BME280;20564;42.902;25.336;2023-08-31T09:14:15;96842.47;;;27.95;57.33
34297;BME280;20564;42.902;25.336;2023-08-31T09:16:47;96846.94;;;27.79;59.92
34297;BME280;20564;42.902;25.336;2023-08-31T09:19:22;96844.03;;;27.58;58.53
34297;BME280;20564;42.902;25.336;2023-08-31T09:21:53;96841.22;;;27.43;59.15
34297;BME280;20564;42.902;25.336;2023-08-31T09:24:20;96842.41;;;27.30;61.95
34297;BME280;20564;42.902;25.336;2023-08-31T09:26:53;96836.69;;;27.22;62.77
34297;BME280;20564;42.902;25.336;2023-08-31T09:29:20;96834.91;;;27.10;61.58
34297;BME280;20564;42.902;25.336;2023-08-31T09:31:48;96835.47;;;27.12;60.69
34297;BME280;20564;42.902;25.336;2023-08-31T09:34:16;96837.13;;;27.13;62.16
34297;BME280;20564;42.902;25.336;2023-08-31T09:36:44;96835.38;;;27.02;60.52
34297;BME280;20564;42.902;25.336;2023-08-31T09:39:14;96836.41;;;27.01;59.96
34297;BME280;20564;42.902;25.336;2023-08-31T09:41:54;96839.72;;;27.08;61.75
34297;BME280;20564;42.902;25.336;2023-08-31T09:44:22;96838.88;;;27.25;58.45
34297;BME280;20564;42.902;25.336;2023-08-31T09:46:48;96838.75;;;27.41;59.85
34297;BME280;20564;42.902;25.336;2023-08-31T09:49:20;96843.84;;;27.65;55.68
34297;BME280;20564;42.902;25.336;2023-08-31T09:51:49;96837.53;;;27.86;56.29
34297;BME280;20564;42.902;25.336;2023-08-31T09:54:17;96837.75;;;28.17;53.02
34297;BME280;20564;42.902;25.336;2023-08-31T09:56:46;96827.09;;;28.48;51.20
34297;BME280;20564;42.902;25.336;2023-08-31T09:59:15;96825.06;;;28.75;51.31
34297;BME280;20564;42.902;25.336;2023-08-31T10:01:44;96827.63;;;29.13;50.73
34297;BME280;20564;42.902;25.336;2023-08-31T10:04:11;96837.38;;;29.14;48.87
34297;BME280;20564;42.902;25.336;2023-08-31T10:06:39;96846.03;;;29.11;49.36
34297;BME280;20564;42.902;25.336;2023-08-31T10:09:07;96833.00;;;28.97;49.18
34297;BME280;20564;42.902;25.336;2023-08-31T10:11:39;96828.06;;;28.79;48.09
34297;BME280;20564;42.902;25.336;2023-08-31T10:14:07;96837.47;;;28.61;49.93
34297;BME280;20564;42.902;25.336;2023-08-31T10:16:35;96843.34;;;28.43;49.74
34297;BME280;20564;42.902;25.336;2023-08-31T10:19:06;96836.13;;;28.21;50.78
34297;BME280;20564;42.902;25.336;2023-08-31T10:21:34;96842.75;;;27.98;52.27
34297;BME280;20564;42.902;25.336;2023-08-31T10:24:14;96848.09;;;27.88;53.38
34297;BME280;20564;42.902;25.336;2023-08-31T10:26:41;96855.59;;;27.81;53.76
34297;BME280;20564;42.902;25.336;2023-08-31T10:29:25;96873.97;;;27.52;57.28
34297;BME280;20564;42.902;25.336;2023-08-31T10:31:53;96871.81;;;27.22;61.26
34297;BME280;20564;42.902;25.336;2023-08-31T10:34:34;96881.16;;;26.92;68.29
34297;BME280;20564;42.902;25.336;2023-08-31T10:37:01;96896.91;;;26.56;67.55
34297;BME280;20564;42.902;25.336;2023-08-31T10:39:39;96891.38;;;26.12;66.75
34297;BME280;20564;42.902;25.336;2023-08-31T10:42:06;96897.06;;;25.65;68.01
34297;BME280;20564;42.902;25.336;2023-08-31T10:44:34;96897.00;;;25.32;70.95
34297;BME280;20564;42.902;25.336;2023-08-31T10:47:03;96902.81;;;25.12;73.88
34297;BME280;20564;42.902;25.336;2023-08-31T10:49:31;96914.56;;;24.94;74.29
34297;BME280;20564;42.902;25.336;2023-08-31T10:52:18;96930.75;;;24.70;75.36
34297;BME280;20564;42.902;25.336;2023-08-31T10:55:05;96927.13;;;24.53;77.18
34297;BME280;20564;42.902;25.336;2023-08-31T10:57:35;96939.97;;;24.27;80.34
34297;BME280;20564;42.902;25.336;2023-08-31T11:00:03;96930.50;;;24.01;82.92
34297;BME280;20564;42.902;25.336;2023-08-31T11:07:46;96908.03;;;23.54;86.59
34297;BME280;20564;42.902;25.336;2023-08-31T11:10:19;96920.75;;;23.47;89.87
34297;BME280;20564;42.902;25.336;2023-08-31T11:12:49;96931.72;;;23.45;89.93
34297;BME280;20564;42.902;25.336;2023-08-31T11:15:21;96940.44;;;23.59;94.41
34297;BME280;20564;42.902;25.336;2023-08-31T11:17:52;96933.94;;;23.67;93.60
34297;BME280;20564;42.902;25.336;2023-08-31T11:20:21;96926.28;;;23.52;89.72
34297;BME280;20564;42.902;25.336;2023-08-31T11:22:50;96920.63;;;23.42;88.72
34297;BME280;20564;42.902;25.336;2023-08-31T11:25:17;96911.72;;;23.29;90.51
34297;BME280;20564;42.902;25.336;2023-08-31T11:27:54;96907.38;;;23.28;92.63
34297;BME280;20564;42.902;25.336;2023-08-31T11:30:21;96910.38;;;23.20;93.16
34297;BME280;20564;42.902;25.336;2023-08-31T11:32:51;96905.13;;;23.25;95.15
34297;BME280;20564;42.902;25.336;2023-08-31T11:35:19;96902.00;;;23.28;95.89
34297;BME280;20564;42.902;25.336;2023-08-31T11:37:51;96901.34;;;23.33;96.26
34297;BME280;20564;42.902;25.336;2023-08-31T11:40:19;96901.53;;;23.31;97.55
34297;BME280;20564;42.902;25.336;2023-08-31T11:42:48;96907.81;;;23.25;98.92
34297;BME280;20564;42.902;25.336;2023-08-31T11:45:16;96900.84;;;23.36;100.00
34297;BME280;20564;42.902;25.336;2023-08-31T11:47:43;96908.31;;;23.64;97.30
34297;BME280;20564;42.902;25.336;2023-08-31T11:50:13;96908.72;;;23.91;90.95
34297;BME280;20564;42.902;25.336;2023-08-31T11:52:40;96907.50;;;24.17;88.59
34297;BME280;20564;42.902;25.336;2023-08-31T11:55:12;96900.03;;;24.43;86.38
34297;BME280;20564;42.902;25.336;2023-08-31T11:57:39;96893.00;;;24.53;84.13
34297;BME280;20564;42.902;25.336;2023-08-31T12:00:06;96894.00;;;24.76;87.55
34297;BME280;20564;42.902;25.336;2023-08-31T12:02:36;96895.75;;;24.70;81.32
34297;BME280;20564;42.902;25.336;2023-08-31T12:05:04;96898.69;;;24.57;81.95
34297;BME280;20564;42.902;25.336;2023-08-31T12:07:39;96902.91;;;24.53;78.50
34297;BME280;20564;42.902;25.336;2023-08-31T12:10:08;96904.44;;;24.49;82.04
34297;BME280;20564;42.902;25.336;2023-08-31T12:12:36;96905.25;;;24.38;83.41
34297;BME280;20564;42.902;25.336;2023-08-31T12:15:05;96905.97;;;24.33;86.20
34297;BME280;20564;42.902;25.336;2023-08-31T12:17:37;96897.78;;;24.28;84.97
34297;BME280;20564;42.902;25.336;2023-08-31T12:20:06;96902.13;;;24.41;87.62
34297;BME280;20564;42.902;25.336;2023-08-31T12:22:33;96875.56;;;24.44;83.67
34297;BME280;20564;42.902;25.336;2023-08-31T12:25:00;96872.63;;;24.46;85.80
34297;BME280;20564;42.902;25.336;2023-08-31T12:27:27;96871.00;;;24.45;83.10
34297;BME280;20564;42.902;25.336;2023-08-31T12:29:54;96888.53;;;24.36;82.42
34297;BME280;20564;42.902;25.336;2023-08-31T12:44:19;96864.97;;;25.18;79.59
34297;BME280;20564;42.902;25.336;2023-08-31T12:46:45;96863.09;;;25.07;79.43
34297;BME280;20564;42.902;25.336;2023-08-31T12:49:12;96852.56;;;25.17;82.66
34297;BME280;20564;42.902;25.336;2023-08-31T12:51:39;96852.66;;;25.22;81.19
34297;BME280;20564;42.902;25.336;2023-08-31T12:54:06;96850.53;;;25.24;77.88
34297;BME280;20564;42.902;25.336;2023-08-31T12:56:34;96857.47;;;25.20;77.06
34297;BME280;20564;42.902;25.336;2023-08-31T12:59:01;96867.56;;;25.13;78.00
34297;BME280;20564;42.902;25.336;2023-08-31T13:01:32;96860.81;;;24.99;77.91
34297;BME280;20564;42.902;25.336;2023-08-31T13:03:59;96851.66;;;25.00;77.12
34297;BME280;20564;42.902;25.336;2023-08-31T13:06:26;96860.94;;;24.92;76.97
34297;BME280;20564;42.902;25.336;2023-08-31T13:08:53;96861.53;;;24.83;78.99
34297;BME280;20564;42.902;25.336;2023-08-31T13:11:20;96855.69;;;24.86;79.46
34297;BME280;20564;42.902;25.336;2023-08-31T13:13:50;96860.13;;;24.92;79.98
34297;BME280;20564;42.902;25.336;2023-08-31T13:16:22;96859.53;;;24.90;78.01
34297;BME280;20564;42.902;25.336;2023-08-31T13:18:51;96855.00;;;24.78;79.29
34297;BME280;20564;42.902;25.336;2023-08-31T13:21:18;96857.59;;;24.73;82.64
34297;BME280;20564;42.902;25.336;2023-08-31T13:23:45;96862.53;;;24.76;84.88
34297;BME280;20564;42.902;25.336;2023-08-31T13:26:12;96865.31;;;24.82;85.10
34297;BME280;20564;42.902;25.336;2023-08-31T13:28:38;96860.25;;;24.85;83.70
34297;BME280;20564;42.902;25.336;2023-08-31T13:31:07;96870.22;;;24.85;81.55
34297;BME280;20564;42.902;25.336;2023-08-31T13:33:34;96861.66;;;24.88;82.26